Time;durP1;ratioP1;P1;durP2;ratioP2;P2;SDS_P1;SDS_P2;PMS_P1;PMS_P2;Temp;Humidity;BMP_temperature;BMP_pressure;BME280_temperature;BME280_humidity;BME280_pressure;Samples;Min_cycle;Max_cycle;Signal;HPM_P1;HPM_P2
2021/07/09 00:02:39;;;;;;;;;;;16.60;1.00;;;;;;5070069;28;19913;-62
2021/07/09 00:05:04;;;;;;;;;;;16.60;1.00;;;;;;5070016;28;19912;-62
2021/07/09 00:07:30;;;;;;;;;;;16.60;1.00;;;;;;5070270;28;19912;-62
2021/07/09 00:09:55;;;;;;;;;;;16.60;1.00;;;;;;5069506;28;19948;-62
2021/07/09 00:12:21;;;;;;;;;;;16.60;1.00;;;;;;5070573;28;19931;-60
2021/07/09 00:14:46;;;;;;;;;;;16.60;1.00;;;;;;5069008;28;19920;-62
2021/07/09 00:17:12;;;;;;;;;;;16.60;1.00;;;;;;5070193;28;20110;-62
2021/07/09 00:19:37;;;;;;;;;;;16.60;1.00;;;;;;5069008;28;19916;-62
2021/07/09 00:22:03;;;;;;;;;;;16.60;1.00;;;;;;5069946;28;19999;-62
2021/07/09 00:24:29;;;;;;;;;;;16.60;1.00;;;;;;5069699;28;19912;-62
2021/07/09 00:26:55;;;;;;;;;;;16.60;1.00;;;;;;5069306;28;19909;-62
2021/07/09 00:29:20;;;;;;;;;;;16.60;1.00;;;;;;5068252;28;20237;-62
2021/07/09 00:31:46;;;;;;;;;;;16.60;1.00;;;;;;5069867;28;19913;-62
2021/07/09 00:34:11;;;;;;;;;;;16.60;1.00;;;;;;5069139;28;19959;-62
2021/07/09 00:36:37;;;;;;;;;;;16.60;1.00;;;;;;5069611;28;19908;-62
2021/07/09 00:39:03;;;;;;;;;;;16.50;1.00;;;;;;5068650;28;19908;-62
2021/07/09 00:41:29;;;;;;;;;;;16.50;1.00;;;;;;5064008;28;19909;-62
2021/07/09 00:43:54;;;;;;;;;;;16.50;1.00;;;;;;5065375;28;20280;-62
2021/07/09 00:46:40;;;;;;;;;;;16.60;1.00;;;;;;5069608;28;20445;-62
2021/07/09 00:49:06;;;;;;;;;;;16.60;1.00;;;;;;5067365;28;19995;-62
2021/07/09 00:51:32;;;;;;;;;;;16.60;1.00;;;;;;5069186;28;19938;-61
2021/07/09 00:53:57;;;;;;;;;;;16.60;1.00;;;;;;5069058;28;20281;-62
2021/07/09 00:56:23;;;;;;;;;;;16.60;1.00;;;;;;5067822;28;20349;-62
2021/07/09 00:58:49;;;;;;;;;;;16.60;1.00;;;;;;5067136;28;20352;-61
2021/07/09 01:01:15;;;;;;;;;;;16.70;1.00;;;;;;5068736;28;19914;-61
2021/07/09 01:03:40;;;;;;;;;;;16.70;1.00;;;;;;5067813;28;20003;-62
2021/07/09 01:06:06;;;;;;;;;;;16.70;1.00;;;;;;5068807;28;19988;-62
2021/07/09 01:08:32;;;;;;;;;;;16.60;1.00;;;;;;5067494;28;19908;-62
2021/07/09 01:10:57;;;;;;;;;;;16.70;1.00;;;;;;5068369;28;19908;-62
2021/07/09 01:13:26;;;;;;;;;;;16.60;1.00;;;;;;5067650;28;19916;-62
2021/07/09 01:15:51;;;;;;;;;;;16.70;1.00;;;;;;5068785;28;19909;-62
2021/07/09 01:18:17;;;;;;;;;;;16.70;1.00;;;;;;5067151;28;19977;-61
2021/07/09 01:20:42;;;;;;;;;;;16.60;1.00;;;;;;5068486;28;19909;-59
2021/07/09 01:23:09;;;;;;;;;;;16.60;1.00;;;;;;5068167;28;20282;-62
2021/07/09 01:25:35;;;;;;;;;;;16.70;1.00;;;;;;5068129;28;19909;-61
2021/07/09 01:28:04;;;;;;;;;;;16.60;1.00;;;;;;5067782;28;20322;-62
2021/07/09 01:30:29;;;;;;;;;;;16.60;1.00;;;;;;5068692;28;19909;-62
2021/07/09 01:32:55;;;;;;;;;;;16.60;1.00;;;;;;5068551;28;19919;-61
2021/07/09 01:35:22;;;;;;;;;;;16.60;1.00;;;;;;5068788;28;19912;-61
2021/07/09 01:37:58;;;;;;;;;;;16.60;1.00;;;;;;5068496;28;20300;-61
2021/07/09 01:40:24;;;;;;;;;;;16.60;1.00;;;;;;5068366;28;19909;-62
2021/07/09 01:42:49;;;;;;;;;;;16.50;1.00;;;;;;5060183;28;20451;-61
2021/07/09 01:45:15;;;;;;;;;;;16.50;1.00;;;;;;5067650;28;19920;-60
2021/07/09 01:47:40;;;;;;;;;;;16.50;1.00;;;;;;5067439;28;20010;-62
2021/07/09 01:50:06;;;;;;;;;;;16.40;1.00;;;;;;5071705;28;20011;-62
2021/07/09 01:52:32;;;;;;;;;;;16.40;1.00;;;;;;5074878;28;19987;-61
2021/07/09 01:54:59;;;;;;;;;;;16.40;1.00;;;;;;5074023;28;19912;-62
2021/07/09 01:57:25;;;;;;;;;;;16.40;1.00;;;;;;5074616;28;19915;-61
2021/07/09 01:59:50;;;;;;;;;;;16.30;1.00;;;;;;5073806;28;19908;-62
2021/07/09 02:02:16;;;;;;;;;;;16.30;1.00;;;;;;5075346;28;19908;-61
2021/07/09 02:04:49;;;;;;;;;;;16.30;1.00;;;;;;5074621;28;19917;-61
2021/07/09 02:07:15;;;;;;;;;;;16.30;1.00;;;;;;5074712;28;19916;-61
2021/07/09 02:09:42;;;;;;;;;;;16.30;1.00;;;;;;5074703;28;19908;-61
2021/07/09 02:12:07;;;;;;;;;;;16.20;1.00;;;;;;5075356;28;19908;-62
2021/07/09 02:14:33;;;;;;;;;;;16.10;1.00;;;;;;5074122;28;19981;-62
2021/07/09 02:16:58;;;;;;;;;;;16.10;1.00;;;;;;5075043;28;19915;-61
2021/07/09 02:19:24;;;;;;;;;;;16.10;1.00;;;;;;5073833;28;19908;-62
2021/07/09 02:21:50;;;;;;;;;;;16.00;1.00;;;;;;5074830;28;19912;-62
2021/07/09 02:24:15;;;;;;;;;;;16.00;1.00;;;;;;5074396;28;20405;-61
2021/07/09 02:26:41;;;;;;;;;;;15.90;1.00;;;;;;5074510;28;19946;-61
2021/07/09 02:29:07;;;;;;;;;;;15.90;1.00;;;;;;5073252;28;20469;-61
2021/07/09 02:31:33;;;;;;;;;;;15.90;1.00;;;;;;5075177;28;20041;-60
2021/07/09 02:33:59;;;;;;;;;;;15.80;1.00;;;;;;5074392;28;19954;-61
2021/07/09 02:36:24;;;;;;;;;;;15.80;1.00;;;;;;5075080;28;19913;-60
2021/07/09 02:38:50;;;;;;;;;;;15.80;1.00;;;;;;5074236;28;19908;-59
2021/07/09 02:41:15;;;;;;;;;;;15.70;1.00;;;;;;5075051;28;20636;-60
2021/07/09 02:43:41;;;;;;;;;;;15.70;1.00;;;;;;5073865;28;19913;-59
2021/07/09 02:46:06;;;;;;;;;;;15.70;1.00;;;;;;5075309;28;19912;-58
2021/07/09 02:48:32;;;;;;;;;;;15.70;1.00;;;;;;5073564;28;20376;-58
2021/07/09 02:50:57;;;;;;;;;;;15.70;1.00;;;;;;5074497;28;19931;-60
2021/07/09 02:53:23;;;;;;;;;;;15.70;1.00;;;;;;5074356;28;19908;-57
2021/07/09 02:55:48;;;;;;;;;;;15.60;1.00;;;;;;5074893;28;20415;-60
2021/07/09 02:58:14;;;;;;;;;;;15.60;1.00;;;;;;5072782;28;20030;-60
2021/07/09 03:00:39;;;;;;;;;;;15.60;1.00;;;;;;5073992;28;20016;-60
2021/07/09 03:03:05;;;;;;;;;;;15.50;1.00;;;;;;5069868;28;19918;-61
2021/07/09 03:05:30;;;;;;;;;;;15.50;1.00;;;;;;5065617;28;19978;-65
2021/07/09 03:07:56;;;;;;;;;;;15.50;1.00;;;;;;5067899;28;19930;-60
2021/07/09 03:10:21;;;;;;;;;;;15.50;1.00;;;;;;5070811;28;19909;-60
2021/07/09 03:12:47;;;;;;;;;;;15.40;1.00;;;;;;5070702;28;20387;-59
2021/07/09 03:15:12;;;;;;;;;;;15.40;1.00;;;;;;5070208;28;19916;-61
2021/07/09 03:17:38;;;;;;;;;;;15.40;1.00;;;;;;5070087;28;19930;-60
2021/07/09 03:20:08;;;;;;;;;;;15.40;1.00;;;;;;5051971;28;19909;-61
2021/07/09 03:22:33;;;;;;;;;;;15.40;1.00;;;;;;5070839;28;19909;-61
2021/07/09 03:24:59;;;;;;;;;;;15.40;1.00;;;;;;5069682;28;19924;-61
2021/07/09 03:27:24;;;;;;;;;;;15.40;1.00;;;;;;5070168;28;19916;-61
2021/07/09 03:29:50;;;;;;;;;;;15.40;1.00;;;;;;5069817;28;19923;-59
2021/07/09 03:32:15;;;;;;;;;;;15.30;1.00;;;;;;5071069;28;19956;-60
2021/07/09 03:34:41;;;;;;;;;;;15.30;1.00;;;;;;5069836;28;20626;-63
2021/07/09 03:37:06;;;;;;;;;;;15.30;1.00;;;;;;5070557;28;20457;-60
2021/07/09 03:39:32;;;;;;;;;;;15.30;1.00;;;;;;5069767;28;20023;-61
2021/07/09 03:41:57;;;;;;;;;;;15.30;1.00;;;;;;5070330;28;19938;-61
2021/07/09 03:44:23;;;;;;;;;;;15.30;1.00;;;;;;5069501;28;19932;-60
2021/07/09 03:46:48;;;;;;;;;;;15.30;1.00;;;;;;5070393;28;20007;-60
2021/07/09 03:49:14;;;;;;;;;;;15.30;1.00;;;;;;5068939;28;19942;-60
2021/07/09 03:51:39;;;;;;;;;;;15.30;1.00;;;;;;5070210;28;20027;-61
2021/07/09 03:54:05;;;;;;;;;;;15.30;1.00;;;;;;5070276;28;19927;-59
2021/07/09 03:56:31;;;;;;;;;;;15.20;1.00;;;;;;5070069;28;20015;-61
2021/07/09 03:58:57;;;;;;;;;;;15.30;1.00;;;;;;5068530;28;19955;-61
2021/07/09 04:01:23;;;;;;;;;;;15.30;1.00;;;;;;5069994;28;20015;-60
2021/07/09 04:03:48;;;;;;;;;;;15.30;1.00;;;;;;5069495;28;20006;-60
2021/07/09 04:06:13;;;;;;;;;;;15.30;1.00;;;;;;5070324;28;19963;-61
2021/07/09 04:08:39;;;;;;;;;;;15.30;1.00;;;;;;5069346;28;19920;-61
2021/07/09 04:11:04;;;;;;;;;;;15.30;1.00;;;;;;5069892;28;19909;-59
2021/07/09 04:13:30;;;;;;;;;;;15.20;1.00;;;;;;5068828;28;19926;-60
2021/07/09 04:15:56;;;;;;;;;;;15.30;1.00;;;;;;5070255;28;19997;-61
2021/07/09 04:18:21;;;;;;;;;;;15.30;1.00;;;;;;5068257;28;19908;-61
2021/07/09 04:20:47;;;;;;;;;;;15.30;1.00;;;;;;5064326;28;19908;-60
2021/07/09 04:23:12;;;;;;;;;;;15.20;1.00;;;;;;5066101;28;20079;-61
2021/07/09 04:25:38;;;;;;;;;;;15.20;1.00;;;;;;5049397;28;19923;-59
2021/07/09 04:28:03;;;;;;;;;;;15.20;1.00;;;;;;5054276;28;19966;-64
2021/07/09 04:30:29;;;;;;;;;;;15.20;1.00;;;;;;5059421;28;19951;-61
2021/07/09 04:32:54;;;;;;;;;;;15.20;1.00;;;;;;5051634;28;19912;-60
2021/07/09 04:35:20;;;;;;;;;;;15.20;1.00;;;;;;5048404;28;20373;-59
2021/07/09 04:37:47;;;;;;;;;;;15.20;1.00;;;;;;5048518;28;19963;-61
2021/07/09 04:40:13;;;;;;;;;;;15.20;1.00;;;;;;5049125;28;20019;-62
2021/07/09 04:42:38;;;;;;;;;;;15.10;1.00;;;;;;5056623;28;20386;-61
2021/07/09 04:45:04;;;;;;;;;;;15.10;1.00;;;;;;5063491;28;19984;-60
2021/07/09 04:47:30;;;;;;;;;;;15.00;1.00;;;;;;5063437;28;19939;-60
2021/07/09 04:49:55;;;;;;;;;;;15.00;1.00;;;;;;5063647;28;19924;-61
2021/07/09 04:52:21;;;;;;;;;;;15.00;7.00;;;;;;5064653;28;19912;-62
2021/07/09 04:54:46;;;;;;;;;;;15.00;1.00;;;;;;5064467;28;19909;-59
2021/07/09 04:57:12;;;;;;;;;;;14.90;1.00;;;;;;5064786;28;20245;-68
2021/07/09 04:59:37;;;;;;;;;;;15.00;1.00;;;;;;5049794;28;19913;-62
2021/07/09 05:02:03;;;;;;;;;;;;;;;;;;5065125;28;20385;-62
2021/07/09 05:04:29;;;;;;;;;;;15.00;1.00;;;;;;5038933;28;19939;-62
2021/07/09 05:06:54;;;;;;;;;;;15.10;1.00;;;;;;5045089;28;19932;-63
2021/07/09 05:09:20;;;;;;;;;;;15.10;1.00;;;;;;5044052;28;19982;-63
2021/07/09 05:11:45;;;;;;;;;;;15.20;1.00;;;;;;5045688;28;19956;-61
2021/07/09 05:14:12;;;;;;;;;;;15.20;1.00;;;;;;5050699;28;19916;-62
2021/07/09 05:16:37;;;;;;;;;;;15.20;1.00;;;;;;5065162;28;19969;-63
2021/07/09 05:19:03;;;;;;;;;;;15.20;1.00;;;;;;5057097;28;19912;-60
2021/07/09 05:21:29;;;;;;;;;;;15.20;1.00;;;;;;5064883;28;20372;-63
2021/07/09 05:23:55;;;;;;;;;;;15.30;1.00;;;;;;5063143;28;19917;-61
2021/07/09 05:26:20;;;;;;;;;;;15.20;1.00;;;;;;5063789;28;19942;-61
2021/07/09 05:28:46;;;;;;;;;;;15.30;1.00;;;;;;5044386;28;19912;-61
2021/07/09 05:31:12;;;;;;;;;;;15.30;1.00;;;;;;5053584;28;19909;-61
2021/07/09 05:33:37;;;;;;;;;;;15.30;1.00;;;;;;5044014;28;19936;-61
2021/07/09 05:36:03;;;;;;;;;;;15.40;1.00;;;;;;5043848;28;19913;-61
2021/07/09 05:38:28;;;;;;;;;;;15.50;1.00;;;;;;5043453;28;19909;-62
2021/07/09 05:40:54;;;;;;;;;;;15.50;1.00;;;;;;5053574;28;19935;-61
2021/07/09 05:43:20;;;;;;;;;;;15.50;1.00;;;;;;5053629;28;20054;-61
2021/07/09 05:45:46;;;;;;;;;;;15.50;1.00;;;;;;5054894;28;20638;-63
2021/07/09 05:48:12;;;;;;;;;;;15.60;1.00;;;;;;5050101;28;20004;-64
2021/07/09 05:50:37;;;;;;;;;;;15.50;1.00;;;;;;5052523;28;20414;-63
2021/07/09 05:53:03;;;;;;;;;;;15.60;1.00;;;;;;5051523;28;20407;-63
2021/07/09 05:55:28;;;;;;;;;;;15.60;1.00;;;;;;5054119;28;20563;-62
2021/07/09 05:57:54;;;;;;;;;;;15.60;1.00;;;;;;5051817;28;20010;-63
2021/07/09 06:00:19;;;;;;;;;;;15.60;1.00;;;;;;5051073;28;19917;-61
2021/07/09 06:02:45;;;;;;;;;;;15.60;1.00;;;;;;5054326;28;19928;-61
2021/07/09 06:05:10;;;;;;;;;;;15.60;1.00;;;;;;5049040;28;19920;-63
2021/07/09 06:07:36;;;;;;;;;;;15.70;1.00;;;;;;5051641;28;19915;-61
2021/07/09 06:10:03;;;;;;;;;;;15.70;1.00;;;;;;5052536;28;19912;-61
2021/07/09 06:12:28;;;;;;;;;;;15.80;1.00;;;;;;5053368;28;19909;-61
2021/07/09 06:14:55;;;;;;;;;;;15.80;1.00;;;;;;5050777;28;19927;-61
2021/07/09 06:17:21;;;;;;;;;;;15.80;1.00;;;;;;5052736;28;20363;-61
2021/07/09 06:19:46;;;;;;;;;;;15.80;1.00;;;;;;5054529;28;19909;-61
2021/07/09 06:22:12;;;;;;;;;;;15.70;1.00;;;;;;5054497;28;19912;-61
2021/07/09 06:24:37;;;;;;;;;;;15.70;1.00;;;;;;5058172;28;19912;-61
2021/07/09 06:27:03;;;;;;;;;;;15.80;1.00;;;;;;5051192;28;19949;-61
2021/07/09 06:29:29;;;;;;;;;;;15.80;1.00;;;;;;5052757;28;19913;-61
2021/07/09 06:31:55;;;;;;;;;;;15.80;1.00;;;;;;5052706;28;20082;-61
2021/07/09 06:34:20;;;;;;;;;;;15.90;1.00;;;;;;5053692;28;20004;-61
2021/07/09 06:36:46;;;;;;;;;;;16.00;1.00;;;;;;5038477;28;20257;-61
2021/07/09 06:39:11;;;;;;;;;;;16.10;1.00;;;;;;5059875;28;20392;-62
2021/07/09 06:41:37;;;;;;;;;;;16.00;1.00;;;;;;5060720;28;20071;-61
2021/07/09 06:44:03;;;;;;;;;;;16.00;1.00;;;;;;5058328;28;19962;-62
2021/07/09 06:46:28;;;;;;;;;;;16.10;1.00;;;;;;5061363;28;19991;-62
2021/07/09 06:48:54;;;;;;;;;;;16.10;1.00;;;;;;5059326;28;19967;-62
2021/07/09 06:51:20;;;;;;;;;;;16.10;1.00;;;;;;5059751;28;19913;-63
2021/07/09 06:53:47;;;;;;;;;;;16.10;1.00;;;;;;5061147;28;20075;-62
2021/07/09 06:56:13;;;;;;;;;;;16.20;1.00;;;;;;5059865;28;19916;-62
2021/07/09 06:58:39;;;;;;;;;;;16.30;1.00;;;;;;5057966;28;19963;-63
2021/07/09 07:01:04;;;;;;;;;;;16.30;1.00;;;;;;5061253;28;20329;-64
2021/07/09 07:03:30;;;;;;;;;;;16.50;1.00;;;;;;5059681;28;20001;-62
2021/07/09 07:05:55;;;;;;;;;;;16.60;1.00;;;;;;5060973;28;19909;-60
2021/07/09 07:08:25;;;;;;;;;;;16.60;1.00;;;;;;5058597;28;19999;-61
2021/07/09 07:10:52;;;;;;;;;;;16.70;1.00;;;;;;5059637;28;19998;-61
2021/07/09 07:13:18;;;;;;;;;;;16.70;1.00;;;;;;5058687;28;20030;-62
2021/07/09 07:15:43;;;;;;;;;;;16.70;1.00;;;;;;5061123;28;19913;-61
2021/07/09 07:18:09;;;;;;;;;;;16.90;1.00;;;;;;5057782;28;19921;-62
2021/07/09 07:20:35;;;;;;;;;;;16.90;1.00;;;;;;5061480;28;19908;-62
2021/07/09 07:23:01;;;;;;;;;;;17.00;1.00;;;;;;5060715;28;19919;-62
2021/07/09 07:25:26;;;;;;;;;;;17.10;1.00;;;;;;5059868;28;19916;-63
2021/07/09 07:27:52;;;;;;;;;;;17.30;1.00;;;;;;5060212;28;19916;-63
2021/07/09 07:30:17;;;;;;;;;;;17.50;1.00;;;;;;5060044;28;20020;-61
2021/07/09 07:32:48;;;;;;;;;;;17.80;1.00;;;;;;5070784;28;19919;-64
2021/07/09 07:35:13;;;;;;;;;;;17.80;1.00;;;;;;5066962;28;19950;-63
2021/07/09 07:37:39;;;;;;;;;;;18.00;1.00;;;;;;5063252;28;20443;-62
2021/07/09 07:40:05;;;;;;;;;;;18.10;1.00;;;;;;5066396;28;19913;-62
2021/07/09 07:42:31;;;;;;;;;;;18.30;1.00;;;;;;5056171;28;19954;-61
2021/07/09 07:44:56;;;;;;;;;;;18.40;1.00;;;;;;5069561;28;19970;-63
2021/07/09 07:47:22;;;;;;;;;;;18.70;99.90;;;;;;5069328;28;20369;-62
2021/07/09 07:49:47;;;;;;;;;;;18.80;99.90;;;;;;5069775;28;19931;-64
2021/07/09 07:52:13;;;;;;;;;;;18.70;99.90;;;;;;5062217;28;20050;-64
2021/07/09 07:54:38;;;;;;;;;;;18.80;99.90;;;;;;5070053;28;19920;-64
2021/07/09 07:57:04;;;;;;;;;;;18.60;99.90;;;;;;5070095;28;19939;-64
2021/07/09 07:59:30;;;;;;;;;;;18.70;99.90;;;;;;5068608;28;19919;-63
2021/07/09 08:01:55;;;;;;;;;;;18.80;99.90;;;;;;5070756;28;20006;-63
2021/07/09 08:04:21;;;;;;;;;;;18.90;99.90;;;;;;5060873;28;19964;-63
2021/07/09 08:06:47;;;;;;;;;;;19.20;1.00;;;;;;5062545;28;19928;-62
2021/07/09 08:09:13;;;;;;;;;;;19.50;1.00;;;;;;5065703;28;20253;-62
2021/07/09 08:11:38;;;;;;;;;;;19.70;1.00;;;;;;5064551;28;19943;-63
2021/07/09 08:14:04;;;;;;;;;;;19.90;1.00;;;;;;5069028;28;19973;-62
2021/07/09 08:16:29;;;;;;;;;;;20.20;1.00;;;;;;5060689;28;19963;-62
2021/07/09 08:18:55;;;;;;;;;;;20.20;99.90;;;;;;5060935;28;20037;-61
2021/07/09 08:21:20;;;;;;;;;;;20.00;99.90;;;;;;5058907;28;19909;-62
2021/07/09 08:23:46;;;;;;;;;;;19.90;1.00;;;;;;5061254;28;19916;-60
2021/07/09 08:26:12;;;;;;;;;;;19.80;1.00;;;;;;5043707;28;19920;-63
2021/07/09 08:28:37;;;;;;;;;;;19.60;99.90;;;;;;5063052;28;19920;-62
2021/07/09 08:31:03;;;;;;;;;;;19.40;1.00;;;;;;5070524;28;19915;-63
2021/07/09 08:33:28;;;;;;;;;;;19.20;99.90;;;;;;5069486;28;20494;-62
2021/07/09 08:35:54;;;;;;;;;;;19.00;99.90;;;;;;5051988;28;20308;-63
2021/07/09 08:38:25;;;;;;;;;;;18.80;1.00;;;;;;5068693;28;19931;-65
2021/07/09 08:40:50;;;;;;;;;;;18.70;1.00;;;;;;5069751;28;20369;-62
2021/07/09 08:43:16;;;;;;;;;;;18.60;99.90;;;;;;5068409;28;19963;-64
2021/07/09 08:45:43;;;;;;;;;;;18.60;99.90;;;;;;5069414;28;19955;-64
2021/07/09 08:48:09;;;;;;;;;;;18.80;97.40;;;;;;5067888;28;19931;-64
2021/07/09 08:50:35;;;;;;;;;;;18.80;99.90;;;;;;5069409;28;19909;-63
2021/07/09 08:53:00;;;;;;;;;;;18.80;1.00;;;;;;5069393;28;19935;-63
2021/07/09 08:55:26;;;;;;;;;;;18.80;1.00;;;;;;5068570;28;19912;-64
2021/07/09 08:57:52;;;;;;;;;;;18.90;1.00;;;;;;5068284;28;19920;-62
2021/07/09 09:00:26;;;;;;;;;;;19.20;1.00;;;;;;5067167;28;20257;-63
2021/07/09 09:02:52;;;;;;;;;;;19.40;1.00;;;;;;5068743;28;20261;-62
2021/07/09 09:05:27;;;;;;;;;;;19.70;1.00;;;;;;5065000;28;19994;-63
2021/07/09 09:07:59;;;;;;;;;;;19.80;1.00;;;;;;5064608;28;19980;-63
2021/07/09 09:10:51;;;;;;;;;;;20.00;99.90;;;;;;5068839;28;20384;-63
2021/07/09 09:13:21;;;;;;;;;;;20.00;1.00;;;;;;5065614;28;19912;-63
2021/07/09 09:16:00;;;;;;;;;;;19.80;99.90;;;;;;5068794;28;19935;-63
2021/07/09 09:18:36;;;;;;;;;;;19.60;1.00;;;;;;5067270;28;19916;-63
2021/07/09 09:21:04;;;;;;;;;;;19.40;99.90;;;;;;5054192;28;19916;-63
2021/07/09 09:23:30;;;;;;;;;;;19.40;1.00;;;;;;5067011;28;19916;-63
2021/07/09 09:25:56;;;;;;;;;;;19.40;1.00;;;;;;5056064;28;19931;-64
2021/07/09 09:28:21;;;;;;;;;;;19.30;99.90;;;;;;5055081;28;19961;-62
2021/07/09 09:30:52;;;;;;;;;;;19.50;99.90;;;;;;5067698;28;19909;-62
2021/07/09 09:33:18;;;;;;;;;;;19.60;1.00;;;;;;5067914;28;19913;-62
2021/07/09 09:35:48;;;;;;;;;;;19.90;1.00;;;;;;5068662;28;19909;-62
2021/07/09 09:38:17;;;;;;;;;;;20.30;1.00;;;;;;5067475;28;19919;-62
2021/07/09 09:40:43;;;;;;;;;;;20.70;99.90;;;;;;5068078;28;19923;-62
2021/07/09 09:43:19;;;;;;;;;;;21.00;99.90;;;;;;5068056;28;20576;-62
2021/07/09 09:45:55;;;;;;;;;;;21.40;1.00;;;;;;5068668;28;19952;-60
2021/07/09 09:48:21;;;;;;;;;;;21.90;1.00;;;;;;5060653;28;20393;-60
2021/07/09 09:50:50;;;;;;;;;;;22.50;99.90;;;;;;5057445;28;19908;-60
2021/07/09 09:53:31;;;;;;;;;;;22.70;99.60;;;;;;5057140;28;19923;-61
2021/07/09 09:56:03;;;;;;;;;;;22.80;1.00;;;;;;5056127;28;20206;-61
2021/07/09 09:58:29;;;;;;;;;;;22.90;1.00;;;;;;5058232;28;19924;-61
2021/07/09 10:00:54;;;;;;;;;;;22.80;1.00;;;;;;5057002;28;19908;-61
2021/07/09 10:03:20;;;;;;;;;;;22.80;1.00;;;;;;5053532;28;19915;-61
2021/07/09 10:05:47;;;;;;;;;;;22.60;1.00;;;;;;5049872;28;19916;-60
2021/07/09 10:08:14;;;;;;;;;;;22.10;1.00;;;;;;5056834;28;19913;-61
2021/07/09 10:10:40;;;;;;;;;;;21.90;1.00;;;;;;5053071;28;20225;-61
2021/07/09 10:13:06;;;;;;;;;;;22.00;1.00;;;;;;5061655;28;20280;-61
2021/07/09 10:15:32;;;;;;;;;;;22.10;1.00;;;;;;5060835;28;19917;-60
2021/07/09 10:17:58;;;;;;;;;;;22.00;1.00;;;;;;5060225;28;20437;-63
2021/07/09 10:20:24;;;;;;;;;;;22.20;1.00;;;;;;5064187;28;20250;-63
2021/07/09 10:22:50;;;;;;;;;;;22.60;1.00;;;;;;5060872;28;19912;-63
2021/07/09 10:25:16;;;;;;;;;;;23.00;1.00;;;;;;5062439;28;19916;-62
2021/07/09 10:27:45;;;;;;;;;;;23.30;1.00;;;;;;5070337;28;20300;-61
2021/07/09 10:30:11;;;;;;;;;;;23.30;1.00;;;;;;5070558;28;19912;-62
2021/07/09 10:32:38;;;;;;;;;;;23.40;1.00;;;;;;5071651;28;20009;-63
2021/07/09 10:35:04;;;;;;;;;;;23.30;1.00;;;;;;5071346;28;19909;-62
2021/07/09 10:37:29;;;;;;;;;;;23.40;1.00;;;;;;5070750;28;19957;-63
2021/07/09 10:40:05;;;;;;;;;;;23.60;1.00;;;;;;5070540;28;20259;-60
2021/07/09 10:42:38;;;;;;;;;;;23.90;1.00;;;;;;5063477;28;19909;-62
2021/07/09 10:45:04;;;;;;;;;;;24.10;1.00;;;;;;5070189;28;19917;-63
2021/07/09 10:47:44;;;;;;;;;;;24.40;1.00;;;;;;5070033;28;20368;-63
2021/07/09 10:50:20;;;;;;;;;;;24.50;1.00;;;;;;5071393;28;19912;-63
2021/07/09 10:52:45;;;;;;;;;;;24.60;1.00;;;;;;5070673;28;19916;-62
2021/07/09 10:55:29;;;;;;;;;;;24.90;1.00;;;;;;5070377;28;19908;-62
2021/07/09 10:58:07;;;;;;;;;;;25.30;1.00;;;;;;5069332;28;19908;-63
2021/07/09 11:00:45;;;;;;;;;;;25.90;1.00;;;;;;5070201;28;19911;-63
2021/07/09 11:03:24;;;;;;;;;;;25.70;1.00;;;;;;5070377;28;20281;-63
2021/07/09 11:05:49;;;;;;;;;;;25.40;1.00;;;;;;5051055;28;20394;-63
2021/07/09 11:08:30;;;;;;;;;;;25.60;1.00;;;;;;5056388;28;19939;-63
2021/07/09 11:10:56;;;;;;;;;;;25.90;1.00;;;;;;5070354;28;19912;-63
2021/07/09 11:13:39;;;;;;;;;;;26.30;1.00;;;;;;5069801;28;20399;-63
2021/07/09 11:16:25;;;;;;;;;;;26.40;1.00;;;;;;5070819;28;20058;-63
2021/07/09 11:18:51;;;;;;;;;;;26.50;1.00;;;;;;5055133;28;19908;-63
2021/07/09 11:21:37;;;;;;;;;;;27.00;1.00;;;;;;5070218;28;20365;-63
2021/07/09 11:24:03;;;;;;;;;;;27.90;99.90;;;;;;5018790;28;19967;-63
2021/07/09 11:26:29;;;;;;;;;;;28.90;99.90;;;;;;5070217;28;20463;-64
2021/07/09 11:28:57;;;;;;;;;;;29.80;99.90;;;;;;5068979;28;19952;-62
2021/07/09 11:31:30;;;;;;;;;;;30.80;99.90;;;;;;5070836;28;19913;-62
2021/07/09 11:34:02;;;;;;;;;;;31.90;99.90;;;;;;5069687;28;19909;-62
2021/07/09 11:36:27;;;;;;;;;;;32.60;99.90;;;;;;5071037;28;19938;-62
2021/07/09 11:39:06;;;;;;;;;;;32.50;99.90;;;;;;5069741;28;20008;-62
2021/07/09 11:41:32;;;;;;;;;;;32.40;99.90;;;;;;5070494;28;20295;-60
2021/07/09 11:43:58;;;;;;;;;;;32.10;99.90;;;;;;5068542;28;19917;-62
2021/07/09 11:46:24;;;;;;;;;;;32.10;99.90;;;;;;5068104;28;20254;-61
2021/07/09 11:48:49;;;;;;;;;;;31.80;99.90;;;;;;5068767;28;19958;-62
2021/07/09 11:51:15;;;;;;;;;;;31.40;99.90;;;;;;5069234;28;20013;-64
2021/07/09 11:53:40;;;;;;;;;;;30.80;99.90;;;;;;5069585;28;19958;-63
2021/07/09 11:56:13;;;;;;;;;;;30.20;99.90;;;;;;5069319;28;19908;-63
2021/07/09 11:58:38;;;;;;;;;;;29.70;99.90;;;;;;5068255;28;19935;-63
2021/07/09 12:01:14;;;;;;;;;;;29.00;99.90;;;;;;5069602;28;20357;-60
2021/07/09 12:03:49;;;;;;;;;;;28.40;99.90;;;;;;5068865;28;19974;-63
2021/07/09 12:06:18;;;;;;;;;;;27.70;99.90;;;;;;5061502;28;19912;-63
2021/07/09 12:08:54;;;;;;;;;;;27.00;99.90;;;;;;5068875;28;20494;-63
2021/07/09 12:11:19;;;;;;;;;;;26.20;1.00;;;;;;5068811;28;20226;-62
2021/07/09 12:14:00;;;;;;;;;;;25.70;99.90;;;;;;5068583;28;19916;-63
2021/07/09 12:16:27;;;;;;;;;;;25.30;99.90;;;;;;5069750;28;19992;-62
2021/07/09 12:18:52;;;;;;;;;;;25.10;99.90;;;;;;5068474;28;20266;-62
2021/07/09 12:21:18;;;;;;;;;;;24.80;99.90;;;;;;5069545;28;20045;-61
2021/07/09 12:23:43;;;;;;;;;;;24.60;99.90;;;;;;5069073;28;19923;-61
2021/07/09 12:26:09;;;;;;;;;;;24.70;99.90;;;;;;5069042;28;19916;-62
2021/07/09 12:28:35;;;;;;;;;;;24.80;1.00;;;;;;5067792;28;20327;-63
2021/07/09 12:31:03;;;;;;;;;;;25.10;1.00;;;;;;5069210;28;20026;-62
2021/07/09 12:33:33;;;;;;;;;;;25.60;1.00;;;;;;5068133;28;19935;-63
2021/07/09 12:36:01;;;;;;;;;;;25.60;1.00;;;;;;5068877;28;19952;-62
2021/07/09 12:38:27;;;;;;;;;;;25.50;1.00;;;;;;5067962;28;20003;-63
2021/07/09 12:40:53;;;;;;;;;;;25.20;1.00;;;;;;5068621;28;20312;-63
2021/07/09 12:43:18;;;;;;;;;;;24.80;1.00;;;;;;5067907;28;19913;-63
2021/07/09 12:45:54;;;;;;;;;;;24.50;1.00;;;;;;5068904;28;20034;-63
2021/07/09 12:48:39;;;;;;;;;;;24.40;1.00;;;;;;5067968;28;19923;-63
2021/07/09 12:51:14;;;;;;;;;;;24.10;1.00;;;;;;5068881;28;20382;-62
2021/07/09 12:53:48;;;;;;;;;;;23.80;1.00;;;;;;5068928;28;19988;-61
2021/07/09 12:56:17;;;;;;;;;;;23.80;1.00;;;;;;5068769;28;19920;-62
2021/07/09 12:58:42;;;;;;;;;;;23.80;1.00;;;;;;5067594;28;19913;-63
2021/07/09 13:01:09;;;;;;;;;;;24.00;1.00;;;;;;5069043;28;19974;-63
2021/07/09 13:03:35;;;;;;;;;;;24.40;1.00;;;;;;5067911;28;20355;-63
2021/07/09 13:06:02;;;;;;;;;;;24.80;1.00;;;;;;5068636;28;19908;-63
2021/07/09 13:08:27;;;;;;;;;;;25.10;1.00;;;;;;5067663;28;19928;-62
2021/07/09 13:11:12;;;;;;;;;;;25.00;1.00;;;;;;5068224;28;19908;-62
2021/07/09 13:13:38;;;;;;;;;;;24.70;1.00;;;;;;5067043;28;19928;-62
2021/07/09 13:16:23;;;;;;;;;;;24.30;1.00;;;;;;5068907;28;20215;-63
2021/07/09 13:18:50;;;;;;;;;;;24.40;1.00;;;;;;5067398;28;19912;-63
2021/07/09 13:21:16;;;;;;;;;;;24.50;1.00;;;;;;5068717;28;19915;-62
2021/07/09 13:23:41;;;;;;;;;;;24.70;1.00;;;;;;5068063;28;20285;-63
2021/07/09 13:26:12;;;;;;;;;;;24.90;1.00;;;;;;5067640;28;20132;-63
2021/07/09 13:28:41;;;;;;;;;;;25.20;1.00;;;;;;5066634;28;19945;-63
2021/07/09 13:31:07;;;;;;;;;;;25.60;1.00;;;;;;5069413;28;19972;-63
2021/07/09 13:33:33;;;;;;;;;;;26.00;1.00;;;;;;5067958;28;20023;-62
2021/07/09 13:35:58;;;;;;;;;;;26.10;1.00;;;;;;5068334;28;19920;-62
2021/07/09 13:38:24;;;;;;;;;;;26.00;1.00;;;;;;5067101;28;19977;-62
2021/07/09 13:40:50;;;;;;;;;;;25.80;1.00;;;;;;5062559;28;19962;-64
2021/07/09 13:43:16;;;;;;;;;;;25.50;1.00;;;;;;5061085;28;19913;-62
2021/07/09 13:45:41;;;;;;;;;;;25.30;1.00;;;;;;5055158;28;20334;-61
2021/07/09 13:48:13;;;;;;;;;;;25.00;1.00;;;;;;5055563;28;20338;-62
2021/07/09 13:50:39;;;;;;;;;;;24.70;1.00;;;;;;5057465;28;19913;-62
2021/07/09 13:53:04;;;;;;;;;;;24.60;1.00;;;;;;5056652;28;19908;-62
2021/07/09 13:55:31;;;;;;;;;;;24.50;1.00;;;;;;5057951;28;19912;-62
2021/07/09 13:57:56;;;;;;;;;;;24.70;1.00;;;;;;5065429;28;20372;-61
2021/07/09 14:00:22;;;;;;;;;;;24.80;1.00;;;;;;5054790;28;19928;-62
2021/07/09 14:02:47;;;;;;;;;;;24.70;1.00;;;;;;5058291;28;19939;-61
2021/07/09 14:05:13;;;;;;;;;;;24.70;1.00;;;;;;5056035;28;19920;-61
2021/07/09 14:07:38;;;;;;;;;;;24.60;1.00;;;;;;5056705;28;20017;-62
2021/07/09 14:10:04;;;;;;;;;;;24.50;1.00;;;;;;5056359;28;19999;-61
2021/07/09 14:12:30;;;;;;;;;;;24.50;1.00;;;;;;5058184;28;19909;-62
2021/07/09 14:14:55;;;;;;;;;;;24.40;1.00;;;;;;5056186;28;19917;-61
2021/07/09 14:17:21;;;;;;;;;;;24.40;1.00;;;;;;5057243;28;20341;-62
2021/07/09 14:19:46;;;;;;;;;;;24.20;1.00;;;;;;5059364;28;20267;-62
2021/07/09 14:22:12;;;;;;;;;;;24.30;1.00;;;;;;5056400;28;19916;-62
2021/07/09 14:24:39;;;;;;;;;;;24.30;1.00;;;;;;5058231;28;20033;-63
2021/07/09 14:27:05;;;;;;;;;;;24.40;1.00;;;;;;5057720;28;19925;-62
2021/07/09 14:29:30;;;;;;;;;;;24.60;1.00;;;;;;5056637;28;19928;-60